createdAt,value
2022-11-27T00:02:25.910Z,9.51
2022-11-27T00:04:52.624Z,9.37
2022-11-27T00:07:19.326Z,9.23
2022-11-27T00:09:46.027Z,9.40
2022-11-27T00:12:12.838Z,9.39
2022-11-27T00:14:39.514Z,9.26
2022-11-27T00:17:09.162Z,9.24
2022-11-27T00:19:35.884Z,9.14
2022-11-27T00:22:02.577Z,9.20
2022-11-27T00:24:29.200Z,9.07
2022-11-27T00:26:58.963Z,9.08
2022-11-27T00:29:29.176Z,9.07
2022-11-27T00:31:56.504Z,9.02
2022-11-27T00:34:23.278Z,9.02
2022-11-27T00:36:49.969Z,8.97
2022-11-27T00:39:16.772Z,9.12
2022-11-27T00:41:43.469Z,9.04
2022-11-27T00:44:10.328Z,9.04
2022-11-27T00:46:37.076Z,8.95
2022-11-27T00:49:06.982Z,8.82
2022-11-27T00:51:33.706Z,8.88
2022-11-27T00:54:03.554Z,8.81
2022-11-27T00:56:32.685Z,8.80
2022-11-27T00:58:59.964Z,8.83
2022-11-27T01:01:27.918Z,8.94
2022-11-27T01:03:56.245Z,8.93
2022-11-27T01:06:27.284Z,8.96
2022-11-27T01:08:54.347Z,8.99
2022-11-27T01:11:23.529Z,9.02
2022-11-27T01:13:50.315Z,8.91
2022-11-27T01:16:21.149Z,8.88
2022-11-27T01:18:49.072Z,8.85
2022-11-27T01:21:17.793Z,8.88
2022-11-27T01:23:48.490Z,8.76
2022-11-27T01:26:16.137Z,8.72
2022-11-27T01:28:42.845Z,8.78
2022-11-27T01:31:17.274Z,8.93
2022-11-27T01:33:45.159Z,8.94
2022-11-27T01:36:13.626Z,8.81
2022-11-27T01:38:40.341Z,8.94
2022-11-27T01:41:20.503Z,8.86
2022-11-27T01:43:56.381Z,8.95
2022-11-27T01:46:28.931Z,9.01
2022-11-27T01:49:09.795Z,8.95
2022-11-27T01:51:52.112Z,8.92
2022-11-27T01:54:19.511Z,9.02
2022-11-27T01:56:49.246Z,9.02
2022-11-27T01:59:17.346Z,8.93
2022-11-27T02:01:44.120Z,8.91
2022-11-27T02:04:14.609Z,8.81
2022-11-27T02:06:41.256Z,8.71
2022-11-27T02:09:07.989Z,8.65
2022-11-27T02:11:44.460Z,8.59
2022-11-27T02:14:17.480Z,8.65
2022-11-27T02:16:53.564Z,8.57
2022-11-27T02:19:57.282Z,8.53
2022-11-27T02:22:39.624Z,8.41
2022-11-27T02:25:29.286Z,8.38
2022-11-27T02:28:25.379Z,8.29
2022-11-27T02:31:00.628Z,8.26
2022-11-27T02:33:29.468Z,8.13
2022-11-27T02:36:03.880Z,8.08
2022-11-27T02:38:41.226Z,8.07
2022-11-27T02:41:38.895Z,7.83
2022-11-27T02:44:07.959Z,7.90
2022-11-27T02:46:34.835Z,7.79
2022-11-27T02:49:05.384Z,7.76
2022-11-27T02:51:42.740Z,7.70
2022-11-27T02:54:17.919Z,7.63
2022-11-27T02:56:48.357Z,7.74
2022-11-27T02:59:16.987Z,7.69
2022-11-27T03:01:48.054Z,7.64
2022-11-27T03:04:18.547Z,7.47
2022-11-27T03:06:53.019Z,7.50
2022-11-27T03:09:24.500Z,7.52
2022-11-27T03:11:54.410Z,7.56
2022-11-27T03:14:24.661Z,7.52
2022-11-27T03:17:28.239Z,7.48
2022-11-27T03:19:56.153Z,7.57
2022-11-27T03:22:23.142Z,7.51
2022-11-27T03:24:50.155Z,7.49
2022-11-27T03:27:26.639Z,7.49
2022-11-27T03:29:56.875Z,7.51
2022-11-27T03:32:24.345Z,7.55
2022-11-27T03:34:51.095Z,7.44
2022-11-27T03:37:18.094Z,7.48
2022-11-27T03:39:44.930Z,7.42
2022-11-27T03:42:30.578Z,7.56
2022-11-27T03:45:06.582Z,7.51
2022-11-27T03:47:50.698Z,7.58
2022-11-27T03:50:29.625Z,7.40
2022-11-27T03:53:20.264Z,7.27
2022-11-27T03:55:54.822Z,7.40
2022-11-27T03:58:30.345Z,7.40
2022-11-27T04:00:57.818Z,7.53
2022-11-27T04:03:27.804Z,7.62
2022-11-27T04:05:54.519Z,7.64
2022-11-27T04:08:21.327Z,7.55
2022-11-27T04:10:48.048Z,7.44
2022-11-27T04:13:17.682Z,7.46
2022-11-27T04:15:44.388Z,7.48
2022-11-27T04:18:11.224Z,7.47
2022-11-27T04:20:37.854Z,7.56
2022-11-27T04:23:04.544Z,7.44
2022-11-27T04:25:31.224Z,7.42
2022-11-27T04:28:00.966Z,7.37
2022-11-27T04:30:27.572Z,7.35
2022-11-27T04:32:54.242Z,7.21
2022-11-27T04:35:20.971Z,7.19
2022-11-27T04:37:47.564Z,7.22
2022-11-27T04:40:14.508Z,7.11
2022-11-27T04:42:41.127Z,7.16
2022-11-27T04:45:08.849Z,7.02
2022-11-27T04:47:35.657Z,7.24
2022-11-27T04:50:02.320Z,7.22
2022-11-27T04:52:28.937Z,7.16
2022-11-27T04:55:00.025Z,7.01
2022-11-27T04:57:27.321Z,6.95
2022-11-27T04:59:53.976Z,7.08
2022-11-27T05:02:20.623Z,7.05
2022-11-27T05:04:47.255Z,7.11
2022-11-27T05:07:13.998Z,7.07
2022-11-27T05:09:40.629Z,7.02
2022-11-27T05:12:07.343Z,6.84
2022-11-27T05:14:33.960Z,6.72
2022-11-27T05:17:00.894Z,6.90
2022-11-27T05:19:29.162Z,6.94
2022-11-27T05:21:56.002Z,6.91
2022-11-27T05:24:24.307Z,6.99
2022-11-27T05:26:51.648Z,6.80
2022-11-27T05:29:19.128Z,6.82
2022-11-27T05:31:46.126Z,6.61
2022-11-27T05:34:13.092Z,6.67
2022-11-27T05:36:39.738Z,6.65
2022-11-27T05:39:07.582Z,6.71
2022-11-27T05:41:41.775Z,6.50
2022-11-27T05:44:11.655Z,6.54
2022-11-27T05:46:38.355Z,6.41
2022-11-27T05:49:06.366Z,6.41
2022-11-27T05:51:32.987Z,6.19
2022-11-27T05:53:59.662Z,6.36
2022-11-27T05:56:26.302Z,6.30
2022-11-27T05:58:52.995Z,6.20
2022-11-27T06:01:19.700Z,6.33
2022-11-27T06:03:46.543Z,6.21
2022-11-27T06:06:16.034Z,6.12
2022-11-27T06:08:42.889Z,6.32
2022-11-27T06:11:11.702Z,6.11
2022-11-27T06:13:38.722Z,6.12
2022-11-27T06:16:11.772Z,6.01
2022-11-27T06:18:39.115Z,6.09
2022-11-27T06:21:10.739Z,6.04
2022-11-27T06:23:41.680Z,5.97
2022-11-27T06:26:20.181Z,5.84
2022-11-27T06:28:49.289Z,5.85
2022-11-27T06:31:21.175Z,5.80
2022-11-27T06:33:49.731Z,5.81
2022-11-27T06:36:17.307Z,5.78
2022-11-27T06:38:44.121Z,5.73
2022-11-27T06:41:21.763Z,5.77
2022-11-27T06:43:48.557Z,5.78
2022-11-27T06:46:17.742Z,5.56
2022-11-27T06:48:46.985Z,5.62
2022-11-27T06:51:15.645Z,5.76
2022-11-27T06:53:42.772Z,5.59
2022-11-27T06:56:11.872Z,5.64
2022-11-27T06:58:42.094Z,5.51
2022-11-27T07:01:14.938Z,5.54
2022-11-27T07:03:41.848Z,5.45
2022-11-27T07:06:11.057Z,5.66
2022-11-27T07:08:37.916Z,5.67
2022-11-27T07:11:09.307Z,5.60
2022-11-27T07:13:36.098Z,5.58
2022-11-27T07:16:04.689Z,5.65
2022-11-27T07:18:35.322Z,5.48
2022-11-27T07:21:02.149Z,5.48
2022-11-27T07:23:28.823Z,5.46
2022-11-27T07:25:55.518Z,5.21
2022-11-27T07:28:25.552Z,5.13
2022-11-27T07:30:56.058Z,5.46
2022-11-27T07:33:25.956Z,5.27
2022-11-27T07:36:13.395Z,5.30
2022-11-27T07:38:40.374Z,5.53
2022-11-27T07:41:07.487Z,5.62
2022-11-27T07:43:34.617Z,5.69
2022-11-27T07:46:05.668Z,5.64
2022-11-27T07:48:32.418Z,5.61
2022-11-27T07:50:59.107Z,5.70
2022-11-27T07:53:25.718Z,5.74
2022-11-27T07:55:52.380Z,5.68
2022-11-27T07:58:19.056Z,5.75
2022-11-27T08:00:45.646Z,5.70
2022-11-27T08:03:12.303Z,5.52
2022-11-27T08:05:39.107Z,5.78
2022-11-27T08:08:05.796Z,5.61
2022-11-27T08:10:35.650Z,5.60
2022-11-27T08:13:06.115Z,5.49
2022-11-27T08:15:33.334Z,5.59
2022-11-27T08:18:00.055Z,5.85
2022-11-27T08:20:27.321Z,5.62
2022-11-27T08:22:58.132Z,5.81
2022-11-27T08:25:27.868Z,5.91
2022-11-27T08:27:54.838Z,5.88
2022-11-27T08:30:23.854Z,6.09
2022-11-27T08:32:50.900Z,6.03
2022-11-27T08:35:17.713Z,6.25
2022-11-27T08:37:47.567Z,6.35
2022-11-27T08:40:14.273Z,6.18
2022-11-27T08:42:41.086Z,6.21
2022-11-27T08:45:08.535Z,6.33
2022-11-27T08:47:35.184Z,6.34
2022-11-27T08:50:02.238Z,6.27
2022-11-27T08:52:28.957Z,6.31
2022-11-27T08:54:57.800Z,6.44
2022-11-27T08:57:25.203Z,6.62
2022-11-27T08:59:51.927Z,6.72
2022-11-27T09:02:18.693Z,6.97
2022-11-27T09:04:45.474Z,7.00
2022-11-27T09:07:14.823Z,6.92
2022-11-27T09:09:41.544Z,7.04
2022-11-27T09:12:08.146Z,7.09
2022-11-27T09:14:34.885Z,7.01
2022-11-27T09:17:01.548Z,7.21
2022-11-27T09:19:31.261Z,7.27
2022-11-27T09:21:59.689Z,7.48
2022-11-27T09:24:26.417Z,7.51
2022-11-27T09:26:53.092Z,7.29
2022-11-27T09:29:19.759Z,7.37
2022-11-27T09:31:46.472Z,7.59
2022-11-27T09:34:13.317Z,7.83
2022-11-27T09:36:40.089Z,7.89
2022-11-27T09:39:06.925Z,7.89
2022-11-27T09:41:41.975Z,8.03
2022-11-27T09:44:43.132Z,8.13
2022-11-27T09:47:22.310Z,8.14
2022-11-27T09:49:58.183Z,8.20
2022-11-27T09:52:34.099Z,8.47
2022-11-27T09:55:03.989Z,8.45
2022-11-27T09:57:37.022Z,8.36
2022-11-27T10:00:10.577Z,8.66
2022-11-27T10:02:37.467Z,8.63
2022-11-27T10:05:15.498Z,8.47
2022-11-27T10:08:18.154Z,8.51
2022-11-27T10:10:50.640Z,8.65
2022-11-27T10:14:02.839Z,8.67
2022-11-27T10:16:44.521Z,8.74
2022-11-27T10:19:27.202Z,8.59
2022-11-27T10:22:00.877Z,9.00
2022-11-27T10:24:39.950Z,9.09
2022-11-27T10:27:35.585Z,9.26
2022-11-27T10:30:04.799Z,9.45
2022-11-27T10:32:54.709Z,9.59
2022-11-27T10:35:22.796Z,9.64
2022-11-27T10:38:12.976Z,9.75
2022-11-27T10:40:45.621Z,9.71
2022-11-27T10:43:30.565Z,9.76
2022-11-27T10:46:09.388Z,9.80
2022-11-27T10:48:36.078Z,9.76
2022-11-27T10:51:02.694Z,9.94
2022-11-27T10:53:34.445Z,10.06
2022-11-27T10:56:16.680Z,10.14
2022-11-27T10:58:50.565Z,10.04
2022-11-27T11:01:19.832Z,9.99
2022-11-27T11:03:46.700Z,9.86
2022-11-27T11:06:22.287Z,9.96
2022-11-27T11:09:02.166Z,9.74
2022-11-27T11:11:28.903Z,9.71
2022-11-27T11:13:55.907Z,9.61
2022-11-27T11:16:34.740Z,9.52
2022-11-27T11:19:02.715Z,9.41
2022-11-27T11:21:35.209Z,9.41
2022-11-27T11:24:14.011Z,9.35
2022-11-27T11:26:45.485Z,9.22
2022-11-27T11:29:27.375Z,9.23
2022-11-27T11:31:55.234Z,9.34
2022-11-27T11:34:29.461Z,9.21
2022-11-27T11:37:00.418Z,9.14
2022-11-27T11:39:33.349Z,8.99
2022-11-27T11:42:00.069Z,9.14
2022-11-27T11:44:38.950Z,9.23
2022-11-27T11:47:05.990Z,9.18
2022-11-27T11:49:33.752Z,9.25
2022-11-27T11:52:21.977Z,9.22
2022-11-27T11:55:02.438Z,9.18
2022-11-27T11:58:10.493Z,9.24
2022-11-27T12:01:19.325Z,9.20
2022-11-27T12:03:38.523Z,9.27
2022-11-27T12:06:27.589Z,9.36
2022-11-27T12:09:16.259Z,9.30
2022-11-27T12:11:50.695Z,9.22
2022-11-27T12:14:39.487Z,9.26
2022-11-27T12:17:24.435Z,9.32
2022-11-27T12:20:05.934Z,9.33
2022-11-27T12:23:06.772Z,9.39
2022-11-27T12:25:40.115Z,9.39
2022-11-27T12:28:48.760Z,9.43
2022-11-27T12:31:44.241Z,9.47
2022-11-27T12:34:18.227Z,9.44
2022-11-27T12:37:13.722Z,9.55
2022-11-27T12:39:57.213Z,9.72
2022-11-27T12:42:47.992Z,9.67
2022-11-27T12:45:24.380Z,9.81
2022-11-27T12:48:02.850Z,9.91
2022-11-27T12:50:59.372Z,9.85
2022-11-27T12:53:33.426Z,9.80
2022-11-27T12:56:21.682Z,9.76
2022-11-27T12:58:56.302Z,9.75
2022-11-27T13:01:33.803Z,9.90
2022-11-27T13:04:24.913Z,9.96
2022-11-27T13:07:10.814Z,9.75
2022-11-27T13:09:45.412Z,9.70
2022-11-27T13:12:21.663Z,9.78
2022-11-27T13:14:55.694Z,9.93
2022-11-27T13:17:25.757Z,9.78
2022-11-27T13:19:52.720Z,9.76
2022-11-27T13:22:27.625Z,9.83
2022-11-27T13:24:56.039Z,9.83
2022-11-27T13:27:26.124Z,9.95
2022-11-27T13:29:55.247Z,9.89
2022-11-27T13:32:29.184Z,9.82
2022-11-27T13:34:58.372Z,9.83
2022-11-27T13:37:28.864Z,9.81
2022-11-27T13:40:19.433Z,9.76
2022-11-27T13:42:49.783Z,9.61
2022-11-27T13:45:25.829Z,9.74
2022-11-27T13:47:52.818Z,9.75
2022-11-27T13:50:23.880Z,9.66
2022-11-27T13:53:07.536Z,9.62
2022-11-27T13:55:37.151Z,9.64
2022-11-27T13:58:05.299Z,9.60
2022-11-27T14:00:33.238Z,9.55
2022-11-27T14:02:59.920Z,9.56
2022-11-27T14:05:43.760Z,9.50
2022-11-27T14:08:19.207Z,9.46
2022-11-27T14:10:52.639Z,9.52
2022-11-27T14:13:22.420Z,9.56
2022-11-27T14:16:01.985Z,9.53
2022-11-27T14:18:30.074Z,9.32
2022-11-27T14:21:02.762Z,9.31
2022-11-27T14:23:34.638Z,9.24
2022-11-27T14:26:31.441Z,9.33
2022-11-27T14:28:59.917Z,9.18
2022-11-27T14:31:35.897Z,9.09
2022-11-27T14:34:23.406Z,9.08
2022-11-27T14:36:52.419Z,9.11
2022-11-27T14:39:28.187Z,9.23
2022-11-27T14:42:00.015Z,9.11
2022-11-27T14:44:27.230Z,9.07
2022-11-27T14:46:54.878Z,8.99
2022-11-27T14:49:24.944Z,8.92
2022-11-27T14:51:53.682Z,8.90
2022-11-27T14:54:32.654Z,8.82
2022-11-27T14:56:59.277Z,8.86
2022-11-27T14:59:26.292Z,8.84
2022-11-27T15:02:14.100Z,8.71
2022-11-27T15:04:42.395Z,8.76
2022-11-27T15:07:16.350Z,8.78
2022-11-27T15:09:49.165Z,8.76
2022-11-27T15:12:23.421Z,8.63
2022-11-27T15:14:56.545Z,8.39
2022-11-27T15:17:28.635Z,8.47
2022-11-27T15:19:56.397Z,8.48
2022-11-27T15:22:23.228Z,8.43
2022-11-27T15:25:01.013Z,8.38
2022-11-27T15:27:30.784Z,8.42
2022-11-27T15:30:08.733Z,8.36
2022-11-27T15:32:51.945Z,8.22
2022-11-27T15:35:30.035Z,8.25
2022-11-27T15:37:57.671Z,8.09
2022-11-27T15:40:28.147Z,8.08
2022-11-27T15:42:54.764Z,8.13
2022-11-27T15:45:22.236Z,8.19
2022-11-27T15:47:57.462Z,8.10
2022-11-27T15:50:24.148Z,8.03
2022-11-27T15:52:50.996Z,8.00
2022-11-27T15:55:17.752Z,7.83
2022-11-27T15:57:47.648Z,7.92
2022-11-27T16:00:15.206Z,7.97
2022-11-27T16:02:41.962Z,7.88
2022-11-27T16:05:09.745Z,7.89
2022-11-27T16:07:36.537Z,7.88
2022-11-27T16:10:05.410Z,7.63
2022-11-27T16:12:32.258Z,7.72
2022-11-27T16:14:59.021Z,7.52
2022-11-27T16:17:25.722Z,7.51
2022-11-27T16:19:52.498Z,7.45
2022-11-27T16:22:19.361Z,7.64
2022-11-27T16:24:46.004Z,7.69
2022-11-27T16:27:12.747Z,7.64
2022-11-27T16:29:39.744Z,7.59
2022-11-27T16:32:06.783Z,7.51
2022-11-27T16:34:34.937Z,7.46
2022-11-27T16:37:02.722Z,7.55
2022-11-27T16:39:29.678Z,7.49
2022-11-27T16:41:56.973Z,7.43
2022-11-27T16:44:24.024Z,7.29
2022-11-27T16:46:51.304Z,7.31
2022-11-27T16:49:18.534Z,7.46
2022-11-27T16:51:45.436Z,7.30
2022-11-27T16:54:13.192Z,7.42
2022-11-27T16:56:42.157Z,7.21
2022-11-27T16:59:13.839Z,7.33
2022-11-27T17:01:42.380Z,7.23
2022-11-27T17:04:15.693Z,7.26
2022-11-27T17:06:42.514Z,7.19
2022-11-27T17:09:09.250Z,7.32
2022-11-27T17:11:37.435Z,7.30
2022-11-27T17:14:06.528Z,7.11
2022-11-27T17:16:38.887Z,7.10
2022-11-27T17:19:05.795Z,7.22
2022-11-27T17:21:34.494Z,7.23
2022-11-27T17:24:04.635Z,7.27
2022-11-27T17:26:38.690Z,7.32
2022-11-27T17:29:05.396Z,7.31
2022-11-27T17:31:33.776Z,7.34
2022-11-27T17:34:01.399Z,7.32
2022-11-27T17:36:33.785Z,7.28
2022-11-27T17:39:05.181Z,7.50
2022-11-27T17:41:31.984Z,7.43
2022-11-27T17:44:05.607Z,7.29
2022-11-27T17:46:33.047Z,7.43
2022-11-27T17:49:01.260Z,7.37
2022-11-27T17:51:30.540Z,7.37
2022-11-27T17:54:01.891Z,7.48
2022-11-27T17:56:31.412Z,7.41
2022-11-27T17:58:59.894Z,7.31
2022-11-27T18:01:29.213Z,7.26
2022-11-27T18:03:57.631Z,7.25
2022-11-27T18:06:24.424Z,7.35
2022-11-27T18:08:52.378Z,7.52
2022-11-27T18:11:21.561Z,7.35
2022-11-27T18:13:49.098Z,7.46
2022-11-27T18:16:19.225Z,7.47
2022-11-27T18:18:46.417Z,7.29
2022-11-27T18:21:18.962Z,7.30
2022-11-27T18:24:21.304Z,7.44
2022-11-27T18:27:06.758Z,7.40
2022-11-27T18:29:23.754Z,7.39
2022-11-27T18:31:51.232Z,7.46
2022-11-27T18:34:18.075Z,7.40
2022-11-27T18:36:46.092Z,7.26
2022-11-27T18:39:13.192Z,7.45
2022-11-27T18:41:39.976Z,7.39
2022-11-27T18:44:08.339Z,7.39
2022-11-27T18:46:35.311Z,7.42
2022-11-27T18:49:02.308Z,7.51
2022-11-27T18:51:29.249Z,7.50
2022-11-27T18:53:57.532Z,7.28
2022-11-27T18:56:27.877Z,7.35
2022-11-27T18:58:56.693Z,7.13
2022-11-27T19:01:33.092Z,7.33
2022-11-27T19:04:05.922Z,7.41
2022-11-27T19:06:35.183Z,7.54
2022-11-27T19:09:02.231Z,7.50
2022-11-27T19:11:30.962Z,7.43
2022-11-27T19:13:58.401Z,7.44
2022-11-27T19:16:30.323Z,7.43
2022-11-27T19:18:58.619Z,7.30
2022-11-27T19:21:28.244Z,7.32
2022-11-27T19:23:57.819Z,7.29
2022-11-27T19:26:29.901Z,7.33
2022-11-27T19:28:59.261Z,7.36
2022-11-27T19:31:27.113Z,7.28
2022-11-27T19:34:01.181Z,7.15
2022-11-27T19:36:29.963Z,7.29
2022-11-27T19:39:02.422Z,7.42
2022-11-27T19:41:30.439Z,7.12
2022-11-27T19:44:04.847Z,7.08
2022-11-27T19:46:34.297Z,7.15
2022-11-27T19:49:09.044Z,7.27
2022-11-27T19:51:37.922Z,7.21
2022-11-27T19:54:09.989Z,7.09
2022-11-27T19:56:40.211Z,7.14
2022-11-27T19:59:11.683Z,7.13
2022-11-27T20:01:41.512Z,7.09
2022-11-27T20:04:11.020Z,7.10
2022-11-27T20:06:39.199Z,7.02
2022-11-27T20:09:07.136Z,6.96
2022-11-27T20:11:35.551Z,7.00
2022-11-27T20:14:04.799Z,7.04
2022-11-27T20:16:32.779Z,7.10
2022-11-27T20:19:00.307Z,7.14
2022-11-27T20:21:27.994Z,7.28
2022-11-27T20:23:55.364Z,7.21
2022-11-27T20:26:24.669Z,6.81
2022-11-27T20:28:53.001Z,6.98
2022-11-27T20:31:28.826Z,6.91
2022-11-27T20:33:59.062Z,6.92
2022-11-27T20:36:26.108Z,6.90
2022-11-27T20:38:55.597Z,6.86
2022-11-27T20:41:23.817Z,6.57
2022-11-27T20:43:56.234Z,6.83
2022-11-27T20:46:23.149Z,6.69
2022-11-27T20:48:51.497Z,6.72
2022-11-27T20:51:25.912Z,6.76
2022-11-27T20:53:53.722Z,6.73
2022-11-27T20:56:20.533Z,6.57
2022-11-27T20:58:49.071Z,6.68
2022-11-27T21:01:26.257Z,6.49
2022-11-27T21:03:55.505Z,6.57
2022-11-27T21:06:26.989Z,6.62
2022-11-27T21:08:54.583Z,6.61
2022-11-27T21:11:25.293Z,6.57
2022-11-27T21:14:06.672Z,6.60
2022-11-27T21:16:35.594Z,6.57
2022-11-27T21:19:06.376Z,6.58
2022-11-27T21:21:33.523Z,6.65
2022-11-27T21:24:00.339Z,6.66
2022-11-27T21:26:28.080Z,6.51
2022-11-27T21:28:55.028Z,6.44
2022-11-27T21:31:26.840Z,6.56
2022-11-27T21:33:55.795Z,6.62
2022-11-27T21:36:26.536Z,6.34
2022-11-27T21:38:53.651Z,6.52
2022-11-27T21:41:21.498Z,6.50
2022-11-27T21:43:48.933Z,6.60
2022-11-27T21:46:22.626Z,6.61
2022-11-27T21:48:51.128Z,6.61
2022-11-27T21:51:21.185Z,6.64
2022-11-27T21:53:52.191Z,6.62
2022-11-27T21:56:20.372Z,6.58
2022-11-27T21:58:49.081Z,6.61
2022-11-27T22:01:19.913Z,6.34
2022-11-27T22:03:54.750Z,6.41
2022-11-27T22:06:24.693Z,6.57
2022-11-27T22:08:51.700Z,6.26
2022-11-27T22:11:21.152Z,6.36
2022-11-27T22:13:52.132Z,6.48
2022-11-27T22:16:21.517Z,6.35
2022-11-27T22:18:49.322Z,6.43
2022-11-27T22:21:16.891Z,6.60
2022-11-27T22:23:44.015Z,6.53
2022-11-27T22:26:16.087Z,6.53
2022-11-27T22:28:42.974Z,6.46
2022-11-27T22:31:16.693Z,6.40
2022-11-27T22:33:44.543Z,6.44
2022-11-27T22:36:16.885Z,6.21
2022-11-27T22:38:45.444Z,6.33
2022-11-27T22:41:12.695Z,6.24
2022-11-27T22:43:39.815Z,6.21
2022-11-27T22:46:12.782Z,6.30
2022-11-27T22:48:39.826Z,6.47
2022-11-27T22:51:08.231Z,6.46
2022-11-27T22:53:36.106Z,6.49
2022-11-27T22:56:08.136Z,6.43
2022-11-27T22:58:39.795Z,6.26
2022-11-27T23:01:09.263Z,6.49
2022-11-27T23:03:36.068Z,6.51
2022-11-27T23:06:02.713Z,6.34
2022-11-27T23:08:30.301Z,6.26
2022-11-27T23:10:56.934Z,6.16
2022-11-27T23:13:23.624Z,6.27
2022-11-27T23:15:50.239Z,6.38
2022-11-27T23:18:16.897Z,6.43
2022-11-27T23:20:44.028Z,6.45
2022-11-27T23:23:11.537Z,6.44
2022-11-27T23:25:38.754Z,6.40
2022-11-27T23:28:06.021Z,6.38
2022-11-27T23:30:33.649Z,6.36
2022-11-27T23:33:00.291Z,6.49
2022-11-27T23:35:27.942Z,6.43
2022-11-27T23:37:54.603Z,6.47
2022-11-27T23:40:21.306Z,6.39
2022-11-27T23:42:48.051Z,6.46
2022-11-27T23:45:14.662Z,6.42
2022-11-27T23:47:41.458Z,6.42
2022-11-27T23:50:08.613Z,6.33
2022-11-27T23:52:35.386Z,6.40
2022-11-27T23:55:02.119Z,6.33
2022-11-27T23:57:28.937Z,6.34
2022-11-27T23:59:55.558Z,6.41
